createdAt,value
2023-01-09T00:07:30.041Z,21.4
2023-01-09T00:17:31.868Z,21.4
2023-01-09T00:37:34.648Z,21.4
2023-01-09T00:47:35.703Z,21.4
2023-01-09T00:57:37.608Z,21.4
2023-01-09T01:07:38.823Z,21.4
2023-01-09T01:17:39.900Z,21.4
2023-01-09T01:27:41.467Z,21.4
2023-01-09T01:37:43.247Z,21.4
2023-01-09T01:47:45.163Z,21.3
2023-01-09T01:57:46.447Z,21.4
2023-01-09T02:07:48.271Z,21.4
2023-01-09T02:27:51.174Z,21.4
2023-01-09T02:37:53.024Z,21.4
2023-01-09T02:47:54.523Z,21.4
2023-01-09T02:57:56.468Z,21.4
2023-01-09T03:07:58.330Z,21.4
2023-01-09T03:17:59.933Z,21.4
2023-01-09T03:28:01.313Z,21.4
2023-01-09T03:38:03.182Z,21.4
2023-01-09T03:48:04.445Z,21.4
2023-01-09T04:08:07.173Z,21.4
2023-01-09T04:18:08.576Z,21.4
2023-01-09T04:28:10.621Z,21.4
2023-01-09T04:38:12.305Z,21.4
2023-01-09T04:48:13.746Z,21.4
2023-01-09T04:58:15.730Z,21.4
2023-01-09T05:08:16.842Z,21.4
2023-01-09T05:18:18.838Z,21.4
2023-01-09T05:28:20.451Z,21.4
2023-01-09T05:38:21.813Z,21.4
2023-01-09T05:48:23.133Z,21.4
2023-01-09T05:58:25.034Z,21.4
2023-01-09T06:08:26.359Z,21.4
2023-01-09T06:18:27.504Z,21.3
2023-01-09T06:28:29.364Z,21.4
2023-01-09T06:38:31.072Z,21.4
2023-01-09T06:48:32.361Z,21.4
2023-01-09T06:58:33.804Z,21.4
2023-01-09T07:08:35.640Z,21.4
2023-01-09T07:18:37.432Z,21.4
2023-01-09T07:28:38.996Z,21.5
2023-01-09T07:38:40.642Z,21.5
2023-01-09T07:48:42.538Z,21.5
2023-01-09T07:58:43.770Z,21.5
2023-01-09T08:08:45.159Z,21.5
2023-01-09T08:18:46.622Z,21.5
2023-01-09T08:28:48.500Z,21.6
2023-01-09T08:38:50.496Z,21.6
2023-01-09T08:48:51.601Z,21.6
2023-01-09T08:58:52.748Z,21.6
2023-01-09T09:08:54.548Z,21.6
2023-01-09T09:18:56.344Z,21.5
2023-01-09T09:28:57.420Z,21.3
2023-01-09T09:38:59.171Z,21.2
2023-01-09T09:49:00.714Z,21
2023-01-09T09:59:01.993Z,20.9
2023-01-09T10:09:03.140Z,21
2023-01-09T10:19:04.415Z,21.1
2023-01-09T10:29:05.470Z,21.2
2023-01-09T10:39:06.616Z,21.3
2023-01-09T10:49:15.101Z,21.4
2023-01-09T10:59:16.511Z,21.4
2023-01-09T11:09:18.078Z,21.5
2023-01-09T11:19:19.677Z,21.5
2023-01-09T11:29:21.611Z,21.6
2023-01-09T11:39:22.777Z,21.6
2023-01-09T11:49:24.791Z,21.6
2023-01-09T11:59:25.809Z,21.6
2023-01-09T12:09:26.985Z,21.6
2023-01-09T12:19:28.737Z,21.6
2023-01-09T12:39:31.946Z,21.6
2023-01-09T12:49:33.200Z,21.7
2023-01-09T12:59:34.769Z,21.7
2023-01-09T13:09:36.342Z,21.6
2023-01-09T13:19:37.693Z,21.3
2023-01-09T13:29:39.596Z,21.3
2023-01-09T13:39:41.556Z,21.4
2023-01-09T13:49:42.965Z,21.5
2023-01-09T13:59:44.172Z,21.5
2023-01-09T14:09:46.011Z,21.6
2023-01-09T14:19:47.106Z,21.6
2023-01-09T14:29:48.300Z,21.6
2023-01-09T14:39:49.491Z,21.7
2023-01-09T14:49:51.564Z,21.7
2023-01-09T14:59:53.330Z,21.7
2023-01-09T15:09:54.593Z,21.7
2023-01-09T15:19:56.504Z,21.7
2023-01-09T15:29:57.632Z,21.8
2023-01-09T15:39:58.830Z,21.8
2023-01-09T15:50:00.580Z,21.8
2023-01-09T16:00:01.863Z,21.8
2023-01-09T16:10:03.054Z,21.8
2023-01-09T16:20:04.903Z,21.8
2023-01-09T16:30:06.394Z,21.8
2023-01-09T16:40:07.737Z,21.8
2023-01-09T16:50:09.302Z,21.8
2023-01-09T17:00:10.927Z,21.8
2023-01-09T17:10:12.390Z,21.8
2023-01-09T17:20:13.791Z,21.9
2023-01-09T17:30:19.041Z,21.9
2023-01-09T17:40:16.516Z,21.9
2023-01-09T17:50:18.321Z,21.9
2023-01-09T18:00:19.674Z,21.9
2023-01-09T18:10:21.218Z,21.9
2023-01-09T18:20:22.441Z,21.9
2023-01-09T18:30:24.121Z,21.9
2023-01-09T18:40:25.681Z,21.9
2023-01-09T18:50:27.375Z,21.9
2023-01-09T19:00:28.826Z,22
2023-01-09T19:10:30.240Z,22
2023-01-09T19:20:31.739Z,22
2023-01-09T19:30:33.004Z,22
2023-01-09T19:40:34.645Z,22
2023-01-09T19:50:35.915Z,22
2023-01-09T20:00:37.072Z,22
2023-01-09T20:10:39.023Z,22
2023-01-09T20:20:41.917Z,22
2023-01-09T20:30:42.370Z,22
2023-01-09T20:40:44.254Z,22
2023-01-09T20:50:45.384Z,22
2023-01-09T21:00:46.792Z,22
2023-01-09T21:10:48.071Z,22
2023-01-09T21:20:50.043Z,22
2023-01-09T21:50:54.999Z,22.1
2023-01-09T22:00:56.984Z,22.1
2023-01-09T22:20:59.665Z,22.1
2023-01-09T22:41:02.511Z,22.1
2023-01-09T23:01:05.362Z,22.1
2023-01-09T23:21:07.707Z,22.1
2023-01-09T23:31:08.977Z,22.1
2023-01-09T23:41:10.320Z,22.1
2023-01-09T23:51:11.719Z,22.1
